Time;durP1;ratioP1;P1;durP2;ratioP2;P2;SDS_P1;SDS_P2;PMS_P1;PMS_P2;Temp;Humidity;BMP_temperature;BMP_pressure;BME280_temperature;BME280_humidity;BME280_pressure;Samples;Min_cycle;Max_cycle;Signal;HPM_P1;HPM_P2
2023/01/26 00:01:20;;;;;;;;;;;;;;;;;;5064575;28;3462;-64
2023/01/26 00:03:46;;;;;;;;;;;;;;;;;;5043936;28;5166;-67
2023/01/26 00:06:11;;;;;;;;;;;;;;;;;;5046706;28;4991;-65
2023/01/26 00:08:40;;;;;;;;;;;;;;;;;;5047290;28;5065;-66
2023/01/26 00:11:06;;;;;;;;;;;;;;;;;;5046696;28;5167;-67
2023/01/26 00:13:31;;;;;;;;;;;;;;;;;;5048525;28;3332;-67
2023/01/26 00:15:57;;;;;;;;;;;;;;;;;;5068071;28;4342;-65
2023/01/26 00:18:22;;;;;;;;;;;;;;;;;;5067936;28;5096;-67
2023/01/26 00:20:49;;;;;;;;;;;;;;;;;;5056833;28;5356;-66
2023/01/26 00:23:14;;;;;;;;;;;;;;;;;;5048099;28;5028;-64
2023/01/26 00:25:39;;;;;;;;;;;;;;;;;;5046634;28;5085;-65
2023/01/26 00:28:05;;;;;;;;;;;;;;;;;;5078690;28;3244;-65
2023/01/26 00:30:30;;;;;;;;;;;;;;;;;;5047549;28;4729;-65
2023/01/26 00:32:56;;;;;;;;;;;;;;;;;;5045038;28;5320;-64
2023/01/26 00:35:22;;;;;;;;;;;;;;;;;;5045651;28;5015;-62
2023/01/26 00:37:47;;;;;;;;;;;;;;;;;;5045587;28;5044;-65
2023/01/26 00:40:12;;;;;;;;;;;;;;;;;;5045883;28;3489;-65
2023/01/26 00:42:38;;;;;;;;;;;;;;;;;;5044690;28;4672;-65
2023/01/26 00:45:04;;;;;;;;;;;;;;;;;;5046090;28;4911;-66
2023/01/26 00:47:29;;;;;;;;;;;;;;;;;;5044762;28;4650;-62
2023/01/26 00:49:54;;;;;;;;;;;;;;;;;;5047073;28;4724;-65
2023/01/26 00:52:20;;;;;;;;;;;;;;;;;;5065793;28;3533;-64
2023/01/26 00:54:45;;;;;;;;;;;;;;;;;;5047379;28;5106;-64
2023/01/26 00:57:11;;;;;;;;;;;;;;;;;;5042083;28;4885;-63
2023/01/26 00:59:36;;;;;;;;;;;;;;;;;;5048967;28;4996;-65
2023/01/26 01:02:01;;;;;;;;;;;;;;;;;;5049338;28;5031;-68
2023/01/26 01:04:28;;;;;;;;;;;;;;;;;;5069219;28;1124;-64
2023/01/26 01:06:54;;;;;;;;;;;;;;;;;;5067121;28;4812;-64
2023/01/26 01:09:19;;;;;;;;;;;;;;;;;;5064005;28;4987;-66
2023/01/26 01:11:44;;;;;;;;;;;;;;;;;;5056501;28;5149;-66
2023/01/26 01:14:10;;;;;;;;;;;;;;;;;;5051839;28;4504;-66
2023/01/26 01:16:35;;;;;;;;;;;;;;;;;;5066955;28;4955;-63
2023/01/26 01:19:00;;;;;;;;;;;;;;;;;;5047232;28;3260;-64
2023/01/26 01:21:26;;;;;;;;;;;;;;;;;;5063004;28;4420;-64
2023/01/26 01:23:51;;;;;;;;;;;;;;;;;;5046451;28;5107;-65
2023/01/26 01:26:16;;;;;;;;;;;;;;;;;;5066457;28;5004;-65
2023/01/26 01:28:42;;;;;;;;;;;;;;;;;;5062367;28;5009;-65
2023/01/26 01:31:08;;;;;;;;;;;;;;;;;;5042263;28;3509;-65
2023/01/26 01:33:33;;;;;;;;;;;;;;;;;;5062021;28;5121;-64
2023/01/26 01:35:59;;;;;;;;;;;;;;;;;;5048077;28;5355;-66
2023/01/26 01:38:24;;;;;;;;;;;;;;;;;;5047446;28;5050;-65
2023/01/26 01:40:50;;;;;;;;;;;;;;;;;;5058845;28;4486;-66
2023/01/26 01:43:15;;;;;;;;;;;;;;;;;;5060643;28;4615;-62
2023/01/26 01:45:41;;;;;;;;;;;;;;;;;;5061880;28;4983;-66
2023/01/26 01:48:10;;;;;;;;;;;;;;;;;;5052254;28;4829;-66
2023/01/26 01:50:36;;;;;;;;;;;;;;;;;;5052364;28;5078;-65
2023/01/26 01:53:01;;;;;;;;;;;;;;;;;;5062171;28;5152;-67
2023/01/26 01:55:28;;;;;;;;;;;;;;;;;;5051273;28;1164;-66
2023/01/26 01:57:54;;;;;;;;;;;;;;;;;;5073522;28;4938;-66
2023/01/26 02:00:20;;;;;;;;;;;;;;;;;;5046635;28;4924;-66
2023/01/26 02:03:09;;;;;;;;;;;;;;;;;;5042401;28;5090;-65
2023/01/26 02:05:33;;;;;;;;;;;;;;;;;;5054146;28;5050;-66
2023/01/26 02:07:59;;;;;;;;;;;;;;;;;;5060188;28;5009;-65
2023/01/26 02:10:24;;;;;;;;;;;;;;;;;;5065962;28;3520;-67
2023/01/26 02:12:50;;;;;;;;;;;;;;;;;;5061818;28;4831;-66
2023/01/26 02:15:16;;;;;;;;;;;;;;;;;;5097420;28;5001;-66
2023/01/26 02:17:41;;;;;;;;;;;;;;;;;;5090806;28;5083;-66
2023/01/26 02:20:06;;;;;;;;;;;;;;;;;;5064566;28;5065;-67
2023/01/26 02:22:44;;;;;;;;;;;;;;;;;;5064239;28;3284;-65
2023/01/26 02:25:12;;;;;;;;;;;;;;;;;;5064300;28;5012;-66
2023/01/26 02:27:37;;;;;;;;;;;;;;;;;;5086236;28;4564;-64
2023/01/26 02:30:02;;;;;;;;;;;;;;;;;;5058854;28;5002;-64
2023/01/26 02:32:28;;;;;;;;;;;;;;;;;;5059533;28;4988;-66
2023/01/26 02:34:56;;;;;;;;;;;;;;;;;;5062978;28;5089;-66
2023/01/26 02:37:22;;;;;;;;;;;;;;;;;;5055889;28;3519;-66
2023/01/26 02:39:55;;;;;;;;;;;;;;;;;;5057088;28;4772;-62
2023/01/26 02:42:40;;;;;;;;;;;;;;;;;;5062716;28;4680;-65
2023/01/26 02:45:06;;;;;;;;;;;;;;;;;;5081692;28;4699;-64
2023/01/26 02:47:31;;;;;;;;;;;;;;;;;;5062504;28;4999;-64
2023/01/26 02:49:57;;;;;;;;;;;;;;;;;;5066310;28;4689;-66
2023/01/26 02:52:26;;;;;;;;;;;;;;;;;;5066113;28;3415;-64
2023/01/26 02:57:36;;;;;;;;;;;;;;;;;;5065119;28;5483;-64
2023/01/26 03:00:05;;;;;;;;;;;;;;;;;;5060816;28;5123;-64
2023/01/26 03:02:30;;;;;;;;;;;;;;;;;;5065211;28;5032;-64
2023/01/26 03:04:55;;;;;;;;;;;;;;;;;;5066680;28;5136;-66
2023/01/26 03:07:21;;;;;;;;;;;;;;;;;;5061764;28;3481;-65
2023/01/26 03:09:46;;;;;;;;;;;;;;;;;;5046183;28;4476;-64
2023/01/26 03:12:12;;;;;;;;;;;;;;;;;;5058542;28;4830;-64
2023/01/26 03:14:37;;;;;;;;;;;;;;;;;;5056708;28;4596;-64
2023/01/26 03:17:02;;;;;;;;;;;;;;;;;;5063490;28;4756;-66
2023/01/26 03:27:39;;;;;;;;;;;;;;;;;;5045165;28;5001;-65
2023/01/26 03:30:05;;;;;;;;;;;;;;;;;;5048369;28;5150;-66
2023/01/26 03:32:30;;;;;;;;;;;;;;;;;;5048274;28;4697;-65
2023/01/26 03:34:55;;;;;;;;;;;;;;;;;;5047502;28;5070;-63
2023/01/26 03:37:21;;;;;;;;;;;;;;;;;;5049496;28;1090;-64
2023/01/26 03:56:23;;;;;;;;;;;;;;;;;;5049452;28;4611;-65
2023/01/26 03:58:55;;;;;;;;;;;;;;;;;;5040058;28;5197;-62
2023/01/26 04:01:25;;;;;;;;;;;;;;;;;;5043050;28;969;-65
2023/01/26 04:09:19;;;;;;;;;;;;;;;;;;5061920;28;4518;-63
2023/01/26 04:11:44;;;;;;;;;;;;;;;;;;5068913;28;4970;-65
2023/01/26 04:22:22;;;;;;;;;;;;;;;;;;5046627;28;3453;-65
2023/01/26 04:24:47;;;;;;;;;;;;;;;;;;5044834;28;4871;-66
2023/01/26 04:27:13;;;;;;;;;;;;;;;;;;5060445;28;5259;-65
2023/01/26 04:29:38;;;;;;;;;;;;;;;;;;5066253;28;5178;-65
2023/01/26 04:32:03;;;;;;;;;;;;;;;;;;5062369;28;4893;-63
2023/01/26 04:34:28;;;;;;;;;;;;;;;;;;5047137;28;3655;-64
2023/01/26 04:36:54;;;;;;;;;;;;;;;;;;5044150;28;4405;-65
2023/01/26 04:39:19;;;;;;;;;;;;;;;;;;5047594;28;5067;-65
2023/01/26 04:41:44;;;;;;;;;;;;;;;;;;5048430;28;4580;-65
2023/01/26 04:44:10;;;;;;;;;;;;;;;;;;5041579;28;4656;-65
2023/01/26 04:46:35;;;;;;;;;;;;;;;;;;5046968;28;5107;-61
2023/01/26 04:49:00;;;;;;;;;;;;;;;;;;5046285;28;3521;-65
2023/01/26 04:51:27;;;;;;;;;;;;;;;;;;5042814;28;5030;-65
2023/01/26 04:53:52;;;;;;;;;;;;;;;;;;5041616;28;4933;-64
2023/01/26 04:56:23;;;;;;;;;;;;;;;;;;5043720;28;5420;-67
2023/01/26 04:58:49;;;;;;;;;;;;;;;;;;5043940;28;5177;-62
2023/01/26 05:01:14;;;;;;;;;;;;;;;;;;5046037;28;3612;-66
2023/01/26 05:03:39;;;;;;;;;;;;;;;;;;5042218;28;5143;-68
2023/01/26 05:06:05;;;;;;;;;;;;;;;;;;5044217;28;5229;-66
2023/01/26 05:08:30;;;;;;;;;;;;;;;;;;5047498;28;4982;-65
2023/01/26 05:10:55;;;;;;;;;;;;;;;;;;5041157;28;4519;-66
2023/01/26 05:13:21;;;;;;;;;;;;;;;;;;5040597;28;3493;-65
2023/01/26 05:15:46;;;;;;;;;;;;;;;;;;5042859;28;5525;-63
2023/01/26 05:18:12;;;;;;;;;;;;;;;;;;5059425;28;4653;-65
2023/01/26 05:20:37;;;;;;;;;;;;;;;;;;5067189;28;5308;-65
2023/01/26 05:23:02;;;;;;;;;;;;;;;;;;5065135;28;5101;-66
2023/01/26 05:25:28;;;;;;;;;;;;;;;;;;5067715;28;3534;-65
2023/01/26 05:27:53;;;;;;;;;;;;;;;;;;5042099;28;5032;-66
2023/01/26 05:30:18;;;;;;;;;;;;;;;;;;5046598;28;4490;-67
2023/01/26 05:32:43;;;;;;;;;;;;;;;;;;5043959;28;5117;-65
2023/01/26 05:35:09;;;;;;;;;;;;;;;;;;5039851;28;5064;-66
2023/01/26 05:37:34;;;;;;;;;;;;;;;;;;5038437;28;4564;-62
2023/01/26 05:39:59;;;;;;;;;;;;;;;;;;5076855;28;3401;-66
2023/01/26 05:42:25;;;;;;;;;;;;;;;;;;5042976;28;4484;-65
2023/01/26 05:44:50;;;;;;;;;;;;;;;;;;5041738;28;4814;-65
2023/01/26 05:47:15;;;;;;;;;;;;;;;;;;5042203;28;5326;-66
2023/01/26 05:49:41;;;;;;;;;;;;;;;;;;5043009;28;5040;-65
2023/01/26 05:52:10;;;;;;;;;;;;;;;;;;5043429;28;3485;-66
2023/01/26 05:54:35;;;;;;;;;;;;;;;;;;5040378;28;4527;-63
2023/01/26 05:57:01;;;;;;;;;;;;;;;;;;5055703;28;5065;-67
2023/01/26 05:59:26;;;;;;;;;;;;;;;;;;5060444;28;5081;-65
2023/01/26 06:01:51;;;;;;;;;;;;;;;;;;5062908;28;5058;-66
2023/01/26 06:04:16;;;;;;;;;;;;;;;;;;5061715;28;3351;-61
2023/01/26 06:06:42;;;;;;;;;;;;;;;;;;5063121;28;4681;-67
2023/01/26 06:09:07;;;;;;;;;;;;;;;;;;5053173;28;5010;-64
2023/01/26 06:11:32;;;;;;;;;;;;;;;;;;5052736;28;4959;-66
2023/01/26 06:13:57;;;;;;;;;;;;;;;;;;5062264;28;4991;-66
2023/01/26 06:16:23;;;;;;;;;;;;;;;;;;5064346;28;3394;-66
2023/01/26 06:18:51;;;;;;;;;;;;;;;;;;5059855;28;5001;-66
2023/01/26 06:21:16;;;;;;;;;;;;;;;;;;5064680;28;4870;-65
2023/01/26 06:23:41;;;;;;;;;;;;;;;;;;5063069;28;5041;-64
2023/01/26 06:26:07;;;;;;;;;;;;;;;;;;5092873;28;4474;-64
2023/01/26 06:28:32;;;;;;;;;;;;;;;;;;5046424;28;3351;-64
2023/01/26 06:30:58;;;;;;;;;;;;;;;;;;5062075;28;5157;-67
2023/01/26 06:33:23;;;;;;;;;;;;;;;;;;5050290;28;4719;-66
2023/01/26 06:35:48;;;;;;;;;;;;;;;;;;5037664;28;5084;-67
2023/01/26 06:38:14;;;;;;;;;;;;;;;;;;5039293;28;4646;-67
2023/01/26 06:40:39;;;;;;;;;;;;;;;;;;5039641;28;4931;-64
2023/01/26 06:43:05;;;;;;;;;;;;;;;;;;5037719;28;4579;-62
2023/01/26 06:45:30;;;;;;;;;;;;;;;;;;5039515;28;5434;-65
2023/01/26 06:47:56;;;;;;;;;;;;;;;;;;5047225;28;5068;-62
2023/01/26 06:50:22;;;;;;;;;;;;;;;;;;5056375;28;4986;-65
2023/01/26 06:52:49;;;;;;;;;;;;;;;;;;5058710;28;5103;-64
2023/01/26 06:55:19;;;;;;;;;;;;;;;;;;5041050;28;3318;-65
2023/01/26 06:57:44;;;;;;;;;;;;;;;;;;5072561;28;4413;-64
2023/01/26 07:00:10;;;;;;;;;;;;;;;;;;5041448;28;4577;-63
2023/01/26 07:02:36;;;;;;;;;;;;;;;;;;5043551;28;5101;-65
2023/01/26 07:05:01;;;;;;;;;;;;;;;;;;5044695;28;5021;-65
2023/01/26 07:07:26;;;;;;;;;;;;;;;;;;5045775;28;3533;-65
2023/01/26 07:09:52;;;;;;;;;;;;;;;;;;5041224;28;4779;-63
2023/01/26 07:12:17;;;;;;;;;;;;;;;;;;5045346;28;5038;-64
2023/01/26 07:14:42;;;;;;;;;;;;;;;;;;5048635;28;5454;-64
2023/01/26 07:17:07;;;;;;;;;;;;;;;;;;5049370;28;5060;-64
2023/01/26 07:19:33;;;;;;;;;;;;;;;;;;5051139;28;4987;-63
2023/01/26 07:21:58;;;;;;;;;;;;;;;;;;5078347;28;1562;-64
2023/01/26 07:24:24;;;;;;;;;;;;;;;;;;5078337;28;5153;-63
2023/01/26 07:26:49;;;;;;;;;;;;;;;;;;5049184;28;5017;-62
2023/01/26 07:29:15;;;;;;;;;;;;;;;;;;5042574;28;4489;-64
2023/01/26 07:31:43;;;;;;;;;;;;;;;;;;5047425;28;4938;-66
2023/01/26 07:34:08;;;;;;;;;;;;;;;;;;5070545;28;1927;-64
2023/01/26 07:36:33;;;;;;;;;;;;;;;;;;5066211;28;4513;-65
2023/01/26 07:38:58;;;;;;;;;;;;;;;;;;5068533;28;4496;-64
2023/01/26 07:41:24;;;;;;;;;;;;;;;;;;5070565;28;4453;-65
2023/01/26 07:43:50;;;;;;;;;;;;;;;;;;5070431;28;4983;-65
2023/01/26 07:46:15;;;;;;;;;;;;;;;;;;5069528;28;3225;-65
2023/01/26 07:48:41;;;;;;;;;;;;;;;;;;5070142;28;4956;-64
2023/01/26 07:51:08;;;;;;;;;;;;;;;;;;5067153;28;5170;-67
2023/01/26 07:53:38;;;;;;;;;;;;;;;;;;5061427;28;4651;-64
2023/01/26 07:56:06;;;;;;;;;;;;;;;;;;5053966;28;5014;-66
2023/01/26 07:58:31;;;;;;;;;;;;;;;;;;5065179;28;1403;-64
2023/01/26 08:01:03;;;;;;;;;;;;;;;;;;5068007;28;4924;-67
2023/01/26 08:03:28;;;;;;;;;;;;;;;;;;5068581;28;4642;-66
2023/01/26 08:05:53;;;;;;;;;;;;;;;;;;5057379;28;5053;-63
2023/01/26 08:08:19;;;;;;;;;;;;;;;;;;5042778;28;4551;-63
2023/01/26 08:10:44;;;;;;;;;;;;;;;;;;5049830;28;5064;-62
2023/01/26 08:13:09;;;;;;;;;;;;;;;;;;5048124;28;3547;-62
2023/01/26 08:15:34;;;;;;;;;;;;;;;;;;5046637;28;5323;-62
2023/01/26 08:18:02;;;;;;;;;;;;;;;;;;5062027;28;4865;-63
2023/01/26 08:20:27;;;;;;;;;;;;;;;;;;5060703;28;5552;-61
2023/01/26 08:22:53;;;;;;;;;;;;;;;;;;5048907;28;5152;-62
2023/01/26 08:25:18;;;;;;;;;;;;;;;;;;5050691;28;1218;-62
2023/01/26 08:27:43;;;;;;;;;;;;;;;;;;5047439;28;4837;-62
2023/01/26 08:30:09;;;;;;;;;;;;;;;;;;5063014;28;5082;-63
2023/01/26 08:32:34;;;;;;;;;;;;;;;;;;5069226;28;5011;-62
2023/01/26 08:34:59;;;;;;;;;;;;;;;;;;5065049;28;5091;-62
2023/01/26 08:37:24;;;;;;;;;;;;;;;;;;5047538;28;3196;-61
2023/01/26 08:39:50;;;;;;;;;;;;;;;;;;5068544;28;5040;-61
2023/01/26 08:42:15;;;;;;;;;;;;;;;;;;5068707;28;4897;-61
2023/01/26 08:44:40;;;;;;;;;;;;;;;;;;5055428;28;4963;-61
2023/01/26 08:47:05;;;;;;;;;;;;;;;;;;5057454;28;5066;-62
2023/01/26 08:49:31;;;;;;;;;;;;;;;;;;5067617;28;3365;-62
2023/01/26 08:51:56;;;;;;;;;;;;;;;;;;5068679;28;5027;-63
2023/01/26 08:54:22;;;;;;;;;;;;;;;;;;5069391;28;5215;-61
2023/01/26 08:56:47;;;;;;;;;;;;;;;;;;5054423;28;4922;-62
2023/01/26 08:59:12;;;;;;;;;;;;;;;;;;5046747;28;5281;-62
2023/01/26 09:01:37;;;;;;;;;;;;;;;;;;5064509;28;5396;-62
2023/01/26 09:04:03;;;;;;;;;;;;;;;;;;5048824;28;3277;-62
2023/01/26 09:06:29;;;;;;;;;;;;;;;;;;5046330;28;5405;-64
2023/01/26 09:08:54;;;;;;;;;;;;;;;;;;5047577;28;4682;-63
2023/01/26 09:11:19;;;;;;;;;;;;;;;;;;5048827;28;5883;-67
2023/01/26 09:13:50;;;;;;;;;;;;;;;;;;5047948;28;5124;-65
2023/01/26 09:16:17;;;;;;;;;;;;;;;;;;5040247;28;3361;-63
2023/01/26 09:18:42;;;;;;;;;;;;;;;;;;5080462;28;5039;-65
2023/01/26 09:21:08;;;;;;;;;;;;;;;;;;5049047;28;5271;-68
2023/01/26 09:23:33;;;;;;;;;;;;;;;;;;5047641;28;5206;-65
2023/01/26 09:25:59;;;;;;;;;;;;;;;;;;5049104;28;5324;-64
2023/01/26 09:28:24;;;;;;;;;;;;;;;;;;5045945;28;3575;-66
2023/01/26 09:30:49;;;;;;;;;;;;;;;;;;5046757;28;4905;-64
2023/01/26 09:33:14;;;;;;;;;;;;;;;;;;5045024;28;4897;-66
2023/01/26 09:35:40;;;;;;;;;;;;;;;;;;5045893;28;5275;-66
2023/01/26 09:38:05;;;;;;;;;;;;;;;;;;5045342;28;5055;-64
2023/01/26 09:40:40;;;;;;;;;;;;;;;;;;5045696;28;3458;-67
2023/01/26 09:43:23;;;;;;;;;;;;;;;;;;5064171;28;4991;-62
2023/01/26 09:45:58;;;;;;;;;;;;;;;;;;5059561;28;4981;-65
2023/01/26 09:48:31;;;;;;;;;;;;;;;;;;5065131;28;5006;-64
2023/01/26 09:50:59;;;;;;;;;;;;;;;;;;5063918;28;5083;-66
2023/01/26 09:53:26;;;;;;;;;;;;;;;;;;5070876;28;5173;-64
2023/01/26 09:55:51;;;;;;;;;;;;;;;;;;5063479;28;4633;-63
2023/01/26 09:58:37;;;;;;;;;;;;;;;;;;5062521;28;3382;-63
2023/01/26 10:01:02;;;;;;;;;;;;;;;;;;5069564;28;4899;-63
2023/01/26 10:03:44;;;;;;;;;;;;;;;;;;5069441;28;4852;-64
2023/01/26 10:06:26;;;;;;;;;;;;;;;;;;5066277;28;4968;-67
2023/01/26 10:08:52;;;;;;;;;;;;;;;;;;5067492;28;5034;-64
2023/01/26 10:11:17;;;;;;;;;;;;;;;;;;5065252;28;4865;-62
2023/01/26 10:13:47;;;;;;;;;;;;;;;;;;5068055;28;5791;-63
2023/01/26 10:16:12;;;;;;;;;;;;;;;;;;5066235;28;1831;-64
2023/01/26 10:18:44;;;;;;;;;;;;;;;;;;5065785;28;4850;-65
2023/01/26 10:21:09;;;;;;;;;;;;;;;;;;5064995;28;4915;-66
2023/01/26 10:23:34;;;;;;;;;;;;;;;;;;5064865;28;4471;-67
2023/01/26 10:26:06;;;;;;;;;;;;;;;;;;5064001;28;5298;-62
2023/01/26 10:28:34;;;;;;;;;;;;;;;;;;5064479;28;3275;-66
2023/01/26 10:30:59;;;;;;;;;;;;;;;;;;5067176;28;4839;-66
2023/01/26 10:33:31;;;;;;;;;;;;;;;;;;5100609;28;4968;-67
2023/01/26 10:35:56;;;;;;;;;;;;;;;;;;5063840;28;5011;-69
2023/01/26 10:38:25;;;;;;;;;;;;;;;;;;5073498;28;4663;-67
2023/01/26 10:40:50;;;;;;;;;;;;;;;;;;5071351;28;5058;-69
2023/01/26 10:43:16;;;;;;;;;;;;;;;;;;5069455;28;4587;-67
2023/01/26 10:45:45;;;;;;;;;;;;;;;;;;5066327;28;5006;-68
2023/01/26 10:48:17;;;;;;;;;;;;;;;;;;5068487;28;5081;-69
2023/01/26 10:50:42;;;;;;;;;;;;;;;;;;5066904;28;5329;-65
2023/01/26 10:53:13;;;;;;;;;;;;;;;;;;5069856;28;4710;-65
2023/01/26 10:55:38;;;;;;;;;;;;;;;;;;5071427;28;5030;-65
2023/01/26 10:58:03;;;;;;;;;;;;;;;;;;5065367;28;1582;-68
2023/01/26 11:00:30;;;;;;;;;;;;;;;;;;5070018;28;4624;-64
2023/01/26 11:03:14;;;;;;;;;;;;;;;;;;5069109;28;4651;-63
2023/01/26 11:05:40;;;;;;;;;;;;;;;;;;5054756;28;5264;-65
2023/01/26 11:08:10;;;;;;;;;;;;;;;;;;5069970;28;4977;-61
2023/01/26 11:10:36;;;;;;;;;;;;;;;;;;5078909;28;4990;-64
2023/01/26 11:13:20;;;;;;;;;;;;;;;;;;5067269;28;3283;-65
2023/01/26 11:15:46;;;;;;;;;;;;;;;;;;5069327;28;4996;-66
2023/01/26 11:18:18;;;;;;;;;;;;;;;;;;5061518;28;5023;-65
2023/01/26 11:20:45;;;;;;;;;;;;;;;;;;5070021;28;5106;-68
2023/01/26 11:23:49;;;;;;;;;;;;;;;;;;5069157;28;4978;-62
2023/01/26 11:26:14;;;;;;;;;;;;;;;;;;5022059;28;5100;-68
2023/01/26 11:28:48;;;;;;;;;;;;;;;;;;5024513;28;5087;-65
2023/01/26 11:31:22;;;;;;;;;;;;;;;;;;5045468;28;3296;-65
2023/01/26 11:33:50;;;;;;;;;;;;;;;;;;5068078;28;5021;-66
2023/01/26 11:36:27;;;;;;;;;;;;;;;;;;5067690;28;5341;-65
2023/01/26 11:39:11;;;;;;;;;;;;;;;;;;5068013;28;4947;-62
2023/01/26 11:41:56;;;;;;;;;;;;;;;;;;5065942;28;5014;-66
2023/01/26 11:44:40;;;;;;;;;;;;;;;;;;5067148;28;5134;-68
2023/01/26 11:47:08;;;;;;;;;;;;;;;;;;5066572;28;5095;-66
2023/01/26 11:49:37;;;;;;;;;;;;;;;;;;5069440;28;4497;-67
2023/01/26 11:52:05;;;;;;;;;;;;;;;;;;5067264;28;3236;-61
2023/01/26 11:54:34;;;;;;;;;;;;;;;;;;5068222;28;4940;-61
2023/01/26 11:57:03;;;;;;;;;;;;;;;;;;5065478;28;5010;-60
2023/01/26 11:59:33;;;;;;;;;;;;;;;;;;5063562;28;5103;-60
2023/01/26 12:02:10;;;;;;;;;;;;;;;;;;5060936;28;4470;-61
2023/01/26 12:04:35;;;;;;;;;;;;;;;;;;5060653;28;5352;-66
2023/01/26 12:07:05;;;;;;;;;;;;;;;;;;5068116;28;3422;-62
2023/01/26 12:09:35;;;;;;;;;;;;;;;;;;5067224;28;5502;-67
2023/01/26 12:12:06;;;;;;;;;;;;;;;;;;5062378;28;4512;-67
2023/01/26 12:14:40;;;;;;;;;;;;;;;;;;5065862;28;5097;-66
2023/01/26 12:17:06;;;;;;;;;;;;;;;;;;5100178;27;5086;-63
2023/01/26 12:19:31;;;;;;;;;;;;;;;;;;5072251;28;3375;-62
2023/01/26 12:21:58;;;;;;;;;;;;;;;;;;5073724;28;4380;-62
2023/01/26 12:24:29;;;;;;;;;;;;;;;;;;5065392;28;5004;-63
2023/01/26 12:26:54;;;;;;;;;;;;;;;;;;5063686;28;5049;-60
2023/01/26 12:29:21;;;;;;;;;;;;;;;;;;5058217;28;5096;-62
2023/01/26 12:31:50;;;;;;;;;;;;;;;;;;5067985;28;5075;-61
2023/01/26 12:34:15;;;;;;;;;;;;;;;;;;5061873;28;3508;-59
2023/01/26 12:36:43;;;;;;;;;;;;;;;;;;5058210;28;5046;-61
2023/01/26 12:39:18;;;;;;;;;;;;;;;;;;5057166;28;4496;-62
2023/01/26 12:41:43;;;;;;;;;;;;;;;;;;5067077;28;4757;-61
2023/01/26 12:44:27;;;;;;;;;;;;;;;;;;5061508;28;5061;-61
2023/01/26 12:46:54;;;;;;;;;;;;;;;;;;5064950;28;4829;-62
2023/01/26 12:49:38;;;;;;;;;;;;;;;;;;5068195;28;1152;-61
2023/01/26 12:52:07;;;;;;;;;;;;;;;;;;5069234;28;5014;-61
2023/01/26 12:54:35;;;;;;;;;;;;;;;;;;5084230;28;4680;-60
2023/01/26 12:57:00;;;;;;;;;;;;;;;;;;5055843;28;4450;-61
2023/01/26 12:59:27;;;;;;;;;;;;;;;;;;5034414;28;4483;-61
2023/01/26 13:01:53;;;;;;;;;;;;;;;;;;5080995;28;5009;-62
2023/01/26 13:04:18;;;;;;;;;;;;;;;;;;5079518;28;1104;-61
2023/01/26 13:06:43;;;;;;;;;;;;;;;;;;5048734;28;4644;-61
2023/01/26 13:09:14;;;;;;;;;;;;;;;;;;5048727;28;4857;-60
2023/01/26 13:11:57;;;;;;;;;;;;;;;;;;5040952;28;5094;-61
2023/01/26 13:14:26;;;;;;;;;;;;;;;;;;5048365;28;4472;-61
2023/01/26 13:16:51;;;;;;;;;;;;;;;;;;5040839;28;5347;-61
2023/01/26 13:19:35;;;;;;;;;;;;;;;;;;5047765;28;1295;-60
2023/01/26 13:22:00;;;;;;;;;;;;;;;;;;5047471;28;6311;-61
2023/01/26 13:24:26;;;;;;;;;;;;;;;;;;5048550;28;4470;-62
2023/01/26 13:26:51;;;;;;;;;;;;;;;;;;5049143;28;5125;-61
2023/01/26 13:29:27;;;;;;;;;;;;;;;;;;5046972;28;5164;-60
2023/01/26 13:31:55;;;;;;;;;;;;;;;;;;5050953;28;4517;-59
2023/01/26 13:34:23;;;;;;;;;;;;;;;;;;5024890;28;1938;-61
2023/01/26 13:36:48;;;;;;;;;;;;;;;;;;5066973;28;5132;-61
2023/01/26 13:39:30;;;;;;;;;;;;;;;;;;5050725;28;5128;-63
2023/01/26 13:41:55;;;;;;;;;;;;;;;;;;5040058;28;5012;-59
2023/01/26 13:44:37;;;;;;;;;;;;;;;;;;5047986;28;5106;-59
2023/01/26 13:47:06;;;;;;;;;;;;;;;;;;5076832;28;5304;-61
2023/01/26 13:49:38;;;;;;;;;;;;;;;;;;5048682;28;3147;-62
2023/01/26 13:52:13;;;;;;;;;;;;;;;;;;5048236;28;5258;-62
2023/01/26 13:54:39;;;;;;;;;;;;;;;;;;5067996;28;5058;-62
2023/01/26 13:57:05;;;;;;;;;;;;;;;;;;5045562;28;4651;-63
2023/01/26 13:59:32;;;;;;;;;;;;;;;;;;5044813;28;4941;-62
2023/01/26 14:01:57;;;;;;;;;;;;;;;;;;5075402;28;4438;-62
2023/01/26 14:04:22;;;;;;;;;;;;;;;;;;5046473;28;1401;-61
2023/01/26 14:07:02;;;;;;;;;;;;;;;;;;5048911;28;5031;-63
2023/01/26 14:09:29;;;;;;;;;;;;;;;;;;5052609;28;5115;-60
2023/01/26 14:11:56;;;;;;;;;;;;;;;;;;5044816;28;5206;-64
2023/01/26 14:14:25;;;;;;;;;;;;;;;;;;5077916;28;5105;-62
2023/01/26 14:16:50;;;;;;;;;;;;;;;;;;5079697;28;4534;-62
2023/01/26 14:19:17;;;;;;;;;;;;;;;;;;5047823;28;1168;-61
2023/01/26 14:21:54;;;;;;;;;;;;;;;;;;5045971;28;4593;-60
2023/01/26 14:24:26;;;;;;;;;;;;;;;;;;5047565;28;4816;-62
2023/01/26 14:26:51;;;;;;;;;;;;;;;;;;5056979;28;4413;-61
2023/01/26 14:29:18;;;;;;;;;;;;;;;;;;5096715;28;4979;-62
2023/01/26 14:31:43;;;;;;;;;;;;;;;;;;5090749;28;4813;-61
2023/01/26 14:34:09;;;;;;;;;;;;;;;;;;5074489;28;1914;-62
2023/01/26 14:36:38;;;;;;;;;;;;;;;;;;5062667;28;4979;-62
2023/01/26 14:39:04;;;;;;;;;;;;;;;;;;5089912;28;5036;-62
2023/01/26 14:41:30;;;;;;;;;;;;;;;;;;5093720;28;4891;-62
2023/01/26 14:43:56;;;;;;;;;;;;;;;;;;5062312;28;4801;-61
2023/01/26 14:46:39;;;;;;;;;;;;;;;;;;5067959;28;1333;-61
2023/01/26 14:49:11;;;;;;;;;;;;;;;;;;5071193;28;4555;-63
2023/01/26 14:51:37;;;;;;;;;;;;;;;;;;5064015;28;5033;-64
2023/01/26 14:54:03;;;;;;;;;;;;;;;;;;5060365;28;5493;-64
2023/01/26 14:56:32;;;;;;;;;;;;;;;;;;5065683;28;5026;-64
2023/01/26 14:58:58;;;;;;;;;;;;;;;;;;5063687;28;5036;-60
2023/01/26 15:01:24;;;;;;;;;;;;;;;;;;5066625;28;3243;-59
2023/01/26 15:03:50;;;;;;;;;;;;;;;;;;5067752;28;5031;-60
2023/01/26 15:06:15;;;;;;;;;;;;;;;;;;5065760;28;4991;-61
2023/01/26 15:08:41;;;;;;;;;;;;;;;;;;5065275;28;5115;-61
2023/01/26 15:13:54;;;;;;;;;;;;;;;;;;5066185;28;5087;-61
2023/01/26 15:16:22;;;;;;;;;;;;;;;;;;5067164;28;3220;-59
2023/01/26 15:19:00;;;;;;;;;;;;;;;;;;5067026;28;5014;-61
2023/01/26 15:21:31;;;;;;;;;;;;;;;;;;5064597;28;4925;-60
2023/01/26 15:23:56;;;;;;;;;;;;;;;;;;5066981;28;4691;-62
2023/01/26 15:26:25;;;;;;;;;;;;;;;;;;5067350;28;4589;-61
2023/01/26 15:28:51;;;;;;;;;;;;;;;;;;5066340;28;5059;-60
2023/01/26 15:31:20;;;;;;;;;;;;;;;;;;5063659;28;4369;-59
2023/01/26 15:33:46;;;;;;;;;;;;;;;;;;5056351;28;5285;-60
2023/01/26 15:36:21;;;;;;;;;;;;;;;;;;5066426;28;4979;-58
2023/01/26 15:38:46;;;;;;;;;;;;;;;;;;5072313;28;4923;-57
2023/01/26 15:41:11;;;;;;;;;;;;;;;;;;5068990;28;4934;-57
2023/01/26 15:43:37;;;;;;;;;;;;;;;;;;5068776;28;4945;-57
2023/01/26 15:46:02;;;;;;;;;;;;;;;;;;5072532;28;1116;-57
2023/01/26 15:48:30;;;;;;;;;;;;;;;;;;5070195;28;4908;-58
2023/01/26 15:50:56;;;;;;;;;;;;;;;;;;5062705;28;4997;-59
2023/01/26 15:53:21;;;;;;;;;;;;;;;;;;5069510;28;4862;-59
2023/01/26 15:55:51;;;;;;;;;;;;;;;;;;5069421;28;5159;-57
2023/01/26 15:58:17;;;;;;;;;;;;;;;;;;5066760;28;3481;-60
2023/01/26 16:00:42;;;;;;;;;;;;;;;;;;5068992;28;4450;-62
2023/01/26 16:03:10;;;;;;;;;;;;;;;;;;5071644;28;5033;-61
2023/01/26 16:05:36;;;;;;;;;;;;;;;;;;5080211;28;5133;-60
2023/01/26 16:08:01;;;;;;;;;;;;;;;;;;5068036;28;5104;-64
2023/01/26 16:10:26;;;;;;;;;;;;;;;;;;5067969;28;3512;-60
2023/01/26 16:12:51;;;;;;;;;;;;;;;;;;5069312;28;4809;-59
2023/01/26 16:15:35;;;;;;;;;;;;;;;;;;5070933;28;4738;-59
2023/01/26 16:18:00;;;;;;;;;;;;;;;;;;5071944;28;5024;-69
2023/01/26 16:20:26;;;;;;;;;;;;;;;;;;5055456;28;5049;-63
2023/01/26 16:22:51;;;;;;;;;;;;;;;;;;5059559;28;4924;-69
2023/01/26 16:25:26;;;;;;;;;;;;;;;;;;5066921;28;3278;-69
2023/01/26 16:27:52;;;;;;;;;;;;;;;;;;5045371;28;5040;-73
2023/01/26 16:30:17;;;;;;;;;;;;;;;;;;5067581;28;5081;-65
2023/01/26 16:32:43;;;;;;;;;;;;;;;;;;5070560;28;5035;-68
2023/01/26 16:35:12;;;;;;;;;;;;;;;;;;5060414;28;5358;-64
2023/01/26 16:37:37;;;;;;;;;;;;;;;;;;5063773;28;5032;-66
2023/01/26 16:40:03;;;;;;;;;;;;;;;;;;5071078;28;3380;-64
2023/01/26 16:42:28;;;;;;;;;;;;;;;;;;5064432;28;4900;-64
2023/01/26 16:44:53;;;;;;;;;;;;;;;;;;5054856;28;5052;-66
2023/01/26 16:47:18;;;;;;;;;;;;;;;;;;5064665;28;5180;-65
2023/01/26 16:49:44;;;;;;;;;;;;;;;;;;5063454;28;5109;-64
2023/01/26 16:52:09;;;;;;;;;;;;;;;;;;5067744;28;3248;-65
2023/01/26 16:54:34;;;;;;;;;;;;;;;;;;5068384;28;4591;-65
2023/01/26 16:57:00;;;;;;;;;;;;;;;;;;5067927;28;4906;-64
2023/01/26 16:59:25;;;;;;;;;;;;;;;;;;5064562;28;5046;-66
2023/01/26 17:01:50;;;;;;;;;;;;;;;;;;5067308;28;5095;-65
2023/01/26 17:04:15;;;;;;;;;;;;;;;;;;5063622;28;3450;-65
2023/01/26 17:06:41;;;;;;;;;;;;;;;;;;5064820;28;5009;-65
2023/01/26 17:09:06;;;;;;;;;;;;;;;;;;5064605;28;5029;-64
2023/01/26 17:11:31;;;;;;;;;;;;;;;;;;5056989;28;5128;-63
2023/01/26 17:13:58;;;;;;;;;;;;;;;;;;5042024;28;4875;-61
2023/01/26 17:16:24;;;;;;;;;;;;;;;;;;5043326;28;4291;-60
2023/01/26 17:18:50;;;;;;;;;;;;;;;;;;5038253;28;5664;-58
2023/01/26 17:21:16;;;;;;;;;;;;;;;;;;5041849;28;5252;-59
2023/01/26 17:23:43;;;;;;;;;;;;;;;;;;5045257;28;5213;-58
2023/01/26 17:26:12;;;;;;;;;;;;;;;;;;5035529;28;5093;-61
2023/01/26 17:28:37;;;;;;;;;;;;;;;;;;5033380;28;5019;-62
2023/01/26 17:31:08;;;;;;;;;;;;;;;;;;5041689;28;3407;-60
2023/01/26 17:33:34;;;;;;;;;;;;;;;;;;5051060;28;4851;-60
2023/01/26 17:35:59;;;;;;;;;;;;;;;;;;5044520;28;4622;-60
2023/01/26 17:38:25;;;;;;;;;;;;;;;;;;5046028;28;5180;-60
2023/01/26 17:40:56;;;;;;;;;;;;;;;;;;5047992;28;4485;-60
2023/01/26 17:43:21;;;;;;;;;;;;;;;;;;5048417;28;4723;-61
2023/01/26 17:45:47;;;;;;;;;;;;;;;;;;5045372;28;4972;-60
2023/01/26 17:48:13;;;;;;;;;;;;;;;;;;5046769;28;4869;-61